Time;durP1;ratioP1;P1;durP2;ratioP2;P2;SDS_P1;SDS_P2;PMS_P1;PMS_P2;Temp;Humidity;BMP_temperature;BMP_pressure;BME280_temperature;BME280_humidity;BME280_pressure;Samples;Min_cycle;Max_cycle;Signal;HPM_P1;HPM_P2
2021/08/26 00:06:51;;;;;;;;;15.50;15.50;;;;;;;;5024668;28;45477;-90
2021/08/26 00:09:17;;;;;;;;;16.75;15.00;;;;;;;;5026508;28;49682;-93
2021/08/26 00:11:47;;;;;;;;;20.50;18.00;;;;;;;;5033748;28;45562;-91
2021/08/26 00:14:13;;;;;;;;;18.50;15.00;;;;;;;;5028481;28;45537;-90
2021/08/26 00:16:40;;;;;;;;;20.75;17.00;;;;;;;;5033873;28;45555;-88
2021/08/26 00:19:06;;;;;;;;;17.00;14.25;;;;;;;;5029253;28;48227;-91
2021/08/26 00:21:31;;;;;;;;;17.50;12.75;;;;;;;;5031654;28;45631;-90
2021/08/26 00:23:56;;;;;;;;;17.00;13.00;;;;;;;;5032385;28;45415;-89
2021/08/26 00:26:21;;;;;;;;;15.00;14.00;;;;;;;;5027072;28;45532;-89
2021/08/26 00:28:47;;;;;;;;;16.67;15.33;;;;;;;;5033126;28;45579;-87
2021/08/26 00:31:12;;;;;;;;;19.33;15.00;;;;;;;;5026149;28;45521;-91
2021/08/26 00:33:37;;;;;;;;;17.33;13.67;;;;;;;;5032643;28;45553;-89
2021/08/26 00:36:03;;;;;;;;;18.00;14.00;;;;;;;;5031910;28;45378;-91
2021/08/26 00:38:28;;;;;;;;;16.00;14.00;;;;;;;;5031258;28;46702;-91
2021/08/26 00:40:53;;;;;;;;;18.00;16.67;;;;;;;;5024175;28;45601;-91
2021/08/26 00:43:18;;;;;;;;;13.25;12.25;;;;;;;;5030941;28;45612;-88
2021/08/26 00:45:45;;;;;;;;;15.33;13.33;;;;;;;;5032969;28;45312;-90
2021/08/26 00:48:11;;;;;;;;;14.00;14.00;;;;;;;;5019335;28;45536;-91
2021/08/26 00:50:36;;;;;;;;;15.25;13.50;;;;;;;;5023569;28;45511;-90
2021/08/26 00:53:01;;;;;;;;;16.75;13.75;;;;;;;;5030539;28;46613;-91
2021/08/26 00:55:26;;;;;;;;;19.00;16.33;;;;;;;;5032325;28;45708;-89
2021/08/26 00:57:52;;;;;;;;;15.33;11.00;;;;;;;;5032571;28;45628;-89
2021/08/26 01:00:17;;;;;;;;;17.50;16.75;;;;;;;;5030926;28;45355;-91
2021/08/26 01:02:49;;;;;;;;;16.00;13.75;;;;;;;;5025217;28;45727;-90
2021/08/26 01:05:17;;;;;;;;;12.50;12.50;;;;;;;;5023604;28;45567;-92
2021/08/26 01:07:44;;;;;;;;;15.50;15.00;;;;;;;;5027509;28;45632;-90
2021/08/26 01:10:13;;;;;;;;;15.50;12.75;;;;;;;;5021641;28;45505;-91
2021/08/26 01:12:39;;;;;;;;;13.00;13.00;;;;;;;;5035028;28;45437;-92
2021/08/26 01:15:04;;;;;;;;;12.25;11.75;;;;;;;;5031754;28;45419;-90
2021/08/26 01:17:30;;;;;;;;;15.00;14.75;;;;;;;;5029872;28;46987;-91
2021/08/26 01:19:56;;;;;;;;;16.00;15.00;;;;;;;;5031746;28;45326;-93
2021/08/26 01:22:23;;;;;;;;;17.00;15.50;;;;;;;;5031991;28;45297;-87
2021/08/26 01:25:08;;;;;;;;;17.00;15.75;;;;;;;;5029089;28;45485;-92
2021/08/26 01:27:42;;;;;;;;;17.75;14.00;;;;;;;;5032241;28;45649;-92
2021/08/26 01:30:08;;;;;;;;;12.25;12.25;;;;;;;;5027527;28;46183;-92
2021/08/26 01:32:34;;;;;;;;;12.25;12.25;;;;;;;;5031711;28;45441;-92
2021/08/26 01:34:59;;;;;;;;;12.50;12.50;;;;;;;;5028630;28;45465;-86
2021/08/26 01:37:25;;;;;;;;;16.25;13.75;;;;;;;;5031029;28;47001;-91
2021/08/26 01:39:51;;;;;;;;;13.00;13.00;;;;;;;;5034261;28;45438;-91
2021/08/26 01:42:16;;;;;;;;;13.25;12.75;;;;;;;;5033619;28;45395;-87
2021/08/26 01:44:42;;;;;;;;;15.00;12.50;;;;;;;;5033831;28;45335;-91
2021/08/26 01:47:08;;;;;;;;;13.00;11.25;;;;;;;;5036381;28;47171;-92
2021/08/26 01:49:33;;;;;;;;;16.50;12.50;;;;;;;;5033723;28;45511;-92
2021/08/26 01:51:58;;;;;;;;;12.67;12.67;;;;;;;;5032284;28;45356;-91
2021/08/26 01:54:23;;;;;;;;;14.33;11.33;;;;;;;;5032467;28;45449;-92
2021/08/26 01:56:49;;;;;;;;;14.33;12.33;;;;;;;;5031369;28;47277;-91
2021/08/26 01:59:14;;;;;;;;;16.00;13.25;;;;;;;;5032574;28;45437;-89
2021/08/26 02:01:39;;;;;;;;;14.67;11.33;;;;;;;;5028961;28;45568;-90
2021/08/26 02:04:05;;;;;;;;;15.00;13.25;;;;;;;;5029196;28;47219;-86
2021/08/26 02:06:30;;;;;;;;;18.33;13.33;;;;;;;;5039527;28;45360;-91
2021/08/26 02:08:55;;;;;;;;;14.25;12.00;;;;;;;;5049467;28;44736;-91
2021/08/26 02:11:20;;;;;;;;;12.00;11.75;;;;;;;;5054437;28;45314;-90
2021/08/26 02:13:46;;;;;;;;;13.50;12.25;;;;;;;;5047779;28;45435;-92
2021/08/26 02:16:11;;;;;;;;;11.33;11.33;;;;;;;;5046240;28;46277;-87
2021/08/26 02:18:36;;;;;;;;;13.75;10.75;;;;;;;;5046415;28;46411;-87
2021/08/26 02:21:02;;;;;;;;;14.00;11.67;;;;;;;;5051672;28;45525;-93
2021/08/26 02:23:27;;;;;;;;;11.00;9.00;;;;;;;;5050639;28;45320;-88
2021/08/26 02:25:52;;;;;;;;;12.33;11.00;;;;;;;;5038182;28;48014;-87
2021/08/26 02:28:17;;;;;;;;;15.00;12.00;;;;;;;;5034084;28;45320;-93
2021/08/26 02:30:43;;;;;;;;;10.33;9.00;;;;;;;;5037529;28;45196;-90
2021/08/26 02:33:08;;;;;;;;;10.00;9.00;;;;;;;;5032536;28;45313;-91
2021/08/26 02:35:33;;;;;;;;;10.75;9.25;;;;;;;;5035266;28;45522;-93
2021/08/26 02:37:59;;;;;;;;;14.00;9.00;;;;;;;;5025368;28;45966;-87
2021/08/26 02:40:24;;;;;;;;;10.00;10.00;;;;;;;;5028446;28;45340;-91
2021/08/26 02:42:49;;;;;;;;;12.33;10.67;;;;;;;;5032418;28;45382;-88
2021/08/26 02:45:14;;;;;;;;;11.75;8.50;;;;;;;;5033914;28;48263;-89
2021/08/26 02:47:40;;;;;;;;;10.33;8.67;;;;;;;;5032567;28;46431;-89
2021/08/26 02:50:05;;;;;;;;;13.00;10.33;;;;;;;;5023952;28;45673;-90
2021/08/26 02:52:30;;;;;;;;;13.25;9.00;;;;;;;;5028596;28;45233;-87
2021/08/26 02:54:56;;;;;;;;;11.33;8.00;;;;;;;;5034759;28;46311;-92
2021/08/26 02:57:21;;;;;;;;;13.33;11.33;;;;;;;;5031659;28;45450;-88
2021/08/26 02:59:46;;;;;;;;;13.25;8.50;;;;;;;;5029883;28;45489;-91
2021/08/26 03:02:11;;;;;;;;;13.67;7.33;;;;;;;;5028640;28;45614;-89
2021/08/26 03:04:37;;;;;;;;;7.33;7.00;;;;;;;;5034056;28;45519;-91
2021/08/26 03:07:02;;;;;;;;;10.00;7.33;;;;;;;;5035217;28;48523;-91
2021/08/26 03:09:27;;;;;;;;;10.75;8.00;;;;;;;;5028782;28;45276;-90
2021/08/26 03:11:52;;;;;;;;;5.33;5.33;;;;;;;;5037837;28;45436;-89
2021/08/26 03:14:18;;;;;;;;;6.00;5.00;;;;;;;;5026944;28;45553;-86
2021/08/26 03:16:43;;;;;;;;;7.33;6.00;;;;;;;;5031754;28;45536;-90
2021/08/26 03:19:08;;;;;;;;;5.00;5.00;;;;;;;;5030080;28;45370;-90
2021/08/26 03:21:33;;;;;;;;;4.33;4.33;;;;;;;;5031643;28;45416;-89
2021/08/26 03:23:59;;;;;;;;;4.67;4.67;;;;;;;;5034649;28;45505;-90
2021/08/26 03:26:24;;;;;;;;;7.33;3.33;;;;;;;;5028165;28;45462;-91
2021/08/26 03:28:49;;;;;;;;;4.00;3.00;;;;;;;;5034694;28;45489;-89
2021/08/26 03:31:14;;;;;;;;;4.33;2.33;;;;;;;;5030403;28;45618;-91
2021/08/26 03:33:39;;;;;;;;;5.00;4.00;;;;;;;;5036009;28;46168;-90
2021/08/26 03:36:05;;;;;;;;;4.67;3.33;;;;;;;;5033511;28;45345;-88
2021/08/26 03:38:30;;;;;;;;;6.00;4.00;;;;;;;;5033070;28;45275;-91
2021/08/26 03:40:55;;;;;;;;;3.33;3.00;;;;;;;;5025709;28;45431;-90
2021/08/26 03:43:20;;;;;;;;;4.00;3.00;;;;;;;;5027679;28;48149;-91
2021/08/26 03:45:48;;;;;;;;;2.00;2.00;;;;;;;;5037102;28;45328;-92
2021/08/26 03:48:13;;;;;;;;;4.00;3.00;;;;;;;;5033591;28;45416;-89
2021/08/26 03:50:39;;;;;;;;;3.00;3.00;;;;;;;;5029539;28;45692;-91
2021/08/26 03:53:04;;;;;;;;;3.00;3.00;;;;;;;;5034523;28;47287;-92
2021/08/26 03:55:29;;;;;;;;;4.25;3.00;;;;;;;;5031531;28;45474;-92
2021/08/26 03:57:54;;;;;;;;;3.00;3.00;;;;;;;;5031932;28;45537;-91
2021/08/26 04:00:20;;;;;;;;;2.67;2.00;;;;;;;;5032760;28;46794;-92
2021/08/26 04:02:45;;;;;;;;;3.00;3.00;;;;;;;;5031067;28;45397;-91
2021/08/26 04:05:10;;;;;;;;;4.00;4.00;;;;;;;;5031040;28;45658;-93
2021/08/26 04:07:35;;;;;;;;;3.67;3.67;;;;;;;;5031800;28;45395;-90
2021/08/26 04:10:00;;;;;;;;;4.00;2.67;;;;;;;;5026627;28;45469;-90
2021/08/26 04:12:27;;;;;;;;;4.00;3.00;;;;;;;;5034434;28;45997;-92
2021/08/26 04:14:53;;;;;;;;;3.50;1.75;;;;;;;;5035140;28;45619;-92
2021/08/26 04:17:18;;;;;;;;;4.00;3.00;;;;;;;;5028271;28;45561;-88
2021/08/26 04:19:43;;;;;;;;;5.00;2.25;;;;;;;;5029750;28;45374;-92
2021/08/26 04:22:09;;;;;;;;;3.00;3.00;;;;;;;;5033003;28;48558;-91
2021/08/26 04:24:34;;;;;;;;;3.50;3.00;;;;;;;;5033291;28;45420;-92
2021/08/26 04:26:59;;;;;;;;;3.00;2.00;;;;;;;;5033612;28;45669;-91
2021/08/26 04:29:24;;;;;;;;;2.00;2.00;;;;;;;;5029178;28;45580;-85
2021/08/26 04:31:50;;;;;;;;;3.33;2.00;;;;;;;;5022601;28;45392;-92
2021/08/26 04:34:15;;;;;;;;;3.33;3.33;;;;;;;;5032528;28;45422;-89
2021/08/26 04:36:40;;;;;;;;;2.67;2.67;;;;;;;;5033030;28;45513;-92
2021/08/26 04:39:05;;;;;;;;;3.00;3.00;;;;;;;;5028619;28;45329;-92
2021/08/26 04:41:30;;;;;;;;;2.00;2.00;;;;;;;;5031983;28;46149;-88
2021/08/26 04:43:56;;;;;;;;;2.00;2.00;;;;;;;;5032079;28;45513;-82
2021/08/26 04:46:21;;;;;;;;;1.00;1.00;;;;;;;;5026294;28;45493;-90
2021/08/26 04:48:46;;;;;;;;;3.00;3.00;;;;;;;;5035068;28;45487;-88
2021/08/26 04:51:11;;;;;;;;;4.00;2.33;;;;;;;;5021631;28;46548;-91
2021/08/26 04:53:37;;;;;;;;;3.00;3.00;;;;;;;;5032844;28;45570;-91
2021/08/26 04:56:02;;;;;;;;;4.00;3.00;;;;;;;;5029815;28;45467;-83
2021/08/26 04:58:27;;;;;;;;;2.00;2.00;;;;;;;;5022187;28;45358;-92
2021/08/26 05:00:52;;;;;;;;;4.33;3.00;;;;;;;;5026561;28;46224;-90
2021/08/26 05:03:17;;;;;;;;;3.00;3.00;;;;;;;;5032403;28;45424;-88
2021/08/26 05:05:43;;;;;;;;;3.00;2.00;;;;;;;;5024159;28;45575;-93
2021/08/26 05:08:08;;;;;;;;;3.00;2.67;;;;;;;;5034604;28;45728;-91
2021/08/26 05:10:33;;;;;;;;;2.50;1.00;;;;;;;;5027803;28;47098;-91
2021/08/26 05:12:58;;;;;;;;;2.00;2.00;;;;;;;;5030300;28;45342;-91
2021/08/26 05:15:24;;;;;;;;;3.00;2.00;;;;;;;;5033330;28;45425;-94
2021/08/26 05:17:49;;;;;;;;;3.00;2.00;;;;;;;;5042496;28;45479;-94
2021/08/26 05:20:14;;;;;;;;;2.33;1.33;;;;;;;;5032274;28;47318;-95
2021/08/26 05:22:39;;;;;;;;;2.00;1.00;;;;;;;;5039792;28;46137;-91
2021/08/26 05:25:05;;;;;;;;;2.67;2.67;;;;;;;;5029599;28;45434;-89
2021/08/26 05:27:30;;;;;;;;;2.00;2.00;;;;;;;;5035740;28;44910;-94
2021/08/26 05:29:55;;;;;;;;;1.00;1.00;;;;;;;;5029629;28;46116;-95
2021/08/26 05:32:20;;;;;;;;;5.00;2.67;;;;;;;;5033378;28;45465;-95
2021/08/26 05:34:46;;;;;;;;;2.00;2.00;;;;;;;;5034821;28;45608;-95
2021/08/26 05:37:11;;;;;;;;;2.00;2.00;;;;;;;;5037191;28;45243;-95
2021/08/26 05:39:36;;;;;;;;;2.00;2.00;;;;;;;;5034294;28;47138;-90
2021/08/26 05:42:02;;;;;;;;;1.00;1.00;;;;;;;;5030497;28;45607;-89
2021/08/26 05:44:27;;;;;;;;;1.25;1.25;;;;;;;;5025310;28;46047;-93
2021/08/26 05:46:52;;;;;;;;;5.00;1.75;;;;;;;;5025339;28;45470;-92
2021/08/26 05:49:17;;;;;;;;;1.00;1.00;;;;;;;;5025360;28;47000;-92
2021/08/26 05:51:43;;;;;;;;;2.00;1.00;;;;;;;;5028108;28;46078;-92
2021/08/26 05:54:08;;;;;;;;;2.67;1.00;;;;;;;;5030835;28;45391;-89
2021/08/26 05:56:33;;;;;;;;;2.00;1.00;;;;;;;;5029210;28;45484;-93
2021/08/26 05:58:58;;;;;;;;;2.00;1.00;;;;;;;;5027073;28;47572;-85
2021/08/26 06:01:28;;;;;;;;;1.00;1.00;;;;;;;;5021928;28;45857;-92
2021/08/26 06:03:53;;;;;;;;;2.00;1.00;;;;;;;;5030100;28;46277;-88
2021/08/26 06:06:18;;;;;;;;;2.75;1.00;;;;;;;;5025517;28;45514;-92
2021/08/26 06:08:43;;;;;;;;;1.00;1.00;;;;;;;;5025843;28;45390;-92
2021/08/26 06:11:09;;;;;;;;;1.00;1.00;;;;;;;;5023654;28;45823;-92
2021/08/26 06:13:34;;;;;;;;;2.00;2.00;;;;;;;;5026429;28;45514;-91
2021/08/26 06:15:59;;;;;;;;;1.67;1.67;;;;;;;;5027955;28;45450;-90
2021/08/26 06:18:24;;;;;;;;;4.33;2.00;;;;;;;;5025358;28;46741;-88
2021/08/26 06:20:49;;;;;;;;;2.00;2.00;;;;;;;;5025880;28;45951;-90
2021/08/26 06:23:15;;;;;;;;;1.33;1.00;;;;;;;;5024855;28;45499;-88
2021/08/26 06:25:40;;;;;;;;;1.00;1.00;;;;;;;;5031109;28;45480;-88
2021/08/26 06:28:05;;;;;;;;;1.00;1.00;;;;;;;;5027231;28;45429;-87
2021/08/26 06:30:30;;;;;;;;;1.00;1.00;;;;;;;;5029583;28;45492;-90
2021/08/26 06:32:56;;;;;;;;;2.00;2.00;;;;;;;;5031096;28;47804;-89
2021/08/26 06:35:21;;;;;;;;;1.00;1.00;;;;;;;;5026678;28;45645;-91
2021/08/26 06:37:46;;;;;;;;;1.00;1.00;;;;;;;;5017639;28;47079;-79
2021/08/26 06:40:12;;;;;;;;;2.00;2.00;;;;;;;;5011775;28;45524;-81
2021/08/26 06:42:37;;;;;;;;;2.50;2.00;;;;;;;;5030010;28;45688;-81
2021/08/26 06:45:02;;;;;;;;;3.50;2.00;;;;;;;;5028636;28;45436;-80
2021/08/26 06:47:28;;;;;;;;;3.00;2.00;;;;;;;;5031554;28;46767;-81
2021/08/26 06:49:53;;;;;;;;;1.25;1.25;;;;;;;;5028622;28;45523;-81
2021/08/26 06:52:18;;;;;;;;;2.00;2.00;;;;;;;;5031404;28;45788;-81
2021/08/26 06:54:43;;;;;;;;;4.00;2.00;;;;;;;;5033474;28;45577;-82
2021/08/26 06:57:09;;;;;;;;;1.33;1.33;;;;;;;;5031055;28;47162;-81
2021/08/26 06:59:35;;;;;;;;;2.25;1.75;;;;;;;;5031088;28;45613;-81
2021/08/26 07:02:00;;;;;;;;;1.75;1.75;;;;;;;;5030341;28;45377;-82
2021/08/26 07:04:25;;;;;;;;;2.00;2.00;;;;;;;;5031734;28;45343;-82
2021/08/26 07:06:51;;;;;;;;;3.67;1.67;;;;;;;;5025495;28;47290;-82
2021/08/26 07:09:16;;;;;;;;;2.25;2.00;;;;;;;;5029268;28;45547;-81
2021/08/26 07:11:42;;;;;;;;;3.00;2.00;;;;;;;;5024834;28;45488;-82
2021/08/26 07:14:07;;;;;;;;;2.67;2.00;;;;;;;;5031149;28;45492;-80
2021/08/26 07:16:32;;;;;;;;;2.67;2.33;;;;;;;;5028033;28;45417;-82
2021/08/26 07:18:57;;;;;;;;;3.00;3.00;;;;;;;;5032430;28;45996;-83
2021/08/26 07:21:22;;;;;;;;;3.00;2.00;;;;;;;;5032689;28;45544;-82
2021/08/26 07:23:48;;;;;;;;;2.75;2.75;;;;;;;;5028044;28;46011;-83
2021/08/26 07:26:13;;;;;;;;;0.00;0.00;;;;;;;;5030999;28;45504;-84
2021/08/26 07:28:38;;;;;;;;;2.00;2.00;;;;;;;;5032536;28;45522;-83
2021/08/26 07:31:03;;;;;;;;;3.00;3.00;;;;;;;;5033930;28;45625;-83
2021/08/26 07:33:29;;;;;;;;;3.67;2.67;;;;;;;;5026518;28;45421;-83
2021/08/26 07:35:55;;;;;;;;;3.67;3.00;;;;;;;;5027476;28;48102;-83
2021/08/26 07:38:20;;;;;;;;;4.00;3.00;;;;;;;;5027063;28;45383;-81
2021/08/26 07:40:46;;;;;;;;;5.75;3.50;;;;;;;;5031143;28;45536;-82
2021/08/26 07:43:13;;;;;;;;;9.67;3.00;;;;;;;;5032114;28;45374;-84
2021/08/26 07:45:38;;;;;;;;;3.00;3.00;;;;;;;;5034744;28;45375;-83
2021/08/26 07:48:04;;;;;;;;;5.33;3.33;;;;;;;;5031385;28;45380;-83
2021/08/26 07:50:29;;;;;;;;;5.00;3.00;;;;;;;;5030375;28;45494;-84
2021/08/26 07:52:54;;;;;;;;;5.00;4.00;;;;;;;;5022090;28;45597;-84
2021/08/26 07:55:20;;;;;;;;;4.67;4.00;;;;;;;;5030161;28;47039;-84
2021/08/26 07:57:45;;;;;;;;;3.00;3.00;;;;;;;;5034722;28;45463;-84
2021/08/26 08:00:10;;;;;;;;;6.75;3.75;;;;;;;;5031714;28;45503;-84
2021/08/26 08:02:36;;;;;;;;;5.50;3.75;;;;;;;;5019198;28;45553;-84
2021/08/26 08:05:01;;;;;;;;;5.33;4.67;;;;;;;;5031156;28;46091;-84
2021/08/26 08:07:26;;;;;;;;;4.00;4.00;;;;;;;;5031152;28;45501;-82
2021/08/26 08:09:52;;;;;;;;;3.00;3.00;;;;;;;;5027899;28;45488;-83
2021/08/26 08:12:17;;;;;;;;;7.25;4.00;;;;;;;;5027599;28;45577;-83
2021/08/26 08:14:43;;;;;;;;;5.50;3.00;;;;;;;;5024572;28;46147;-83
2021/08/26 08:17:09;;;;;;;;;6.00;4.00;;;;;;;;5025356;28;45561;-83
2021/08/26 08:19:34;;;;;;;;;4.25;4.25;;;;;;;;5029704;28;45468;-84
2021/08/26 08:22:00;;;;;;;;;4.67;3.00;;;;;;;;5024156;28;45664;-83
2021/08/26 08:24:25;;;;;;;;;3.00;3.00;;;;;;;;5031923;28;47630;-84
2021/08/26 08:26:50;;;;;;;;;4.25;3.00;;;;;;;;5023766;28;45506;-84
2021/08/26 08:29:16;;;;;;;;;5.00;5.00;;;;;;;;5027158;28;45454;-85
2021/08/26 08:31:41;;;;;;;;;3.00;3.00;;;;;;;;5029128;28;45678;-84
2021/08/26 08:34:06;;;;;;;;;3.00;3.00;;;;;;;;5028685;28;48826;-85
2021/08/26 08:36:31;;;;;;;;;3.00;3.00;;;;;;;;5025730;28;45413;-85
2021/08/26 08:38:56;;;;;;;;;3.75;2.50;;;;;;;;5026874;28;45469;-85
2021/08/26 08:41:22;;;;;;;;;3.00;3.00;;;;;;;;5025240;28;45390;-85
2021/08/26 08:43:48;;;;;;;;;4.25;2.75;;;;;;;;5027862;28;46103;-84
2021/08/26 08:46:13;;;;;;;;;3.75;2.00;;;;;;;;5020999;28;45692;-83
2021/08/26 08:48:40;;;;;;;;;4.25;2.50;;;;;;;;5029631;28;45512;-83
2021/08/26 08:51:05;;;;;;;;;4.25;3.50;;;;;;;;5022668;28;45490;-83
2021/08/26 08:53:30;;;;;;;;;3.50;3.00;;;;;;;;5023443;28;46809;-82
2021/08/26 08:55:56;;;;;;;;;3.00;3.00;;;;;;;;5029703;28;45516;-83
2021/08/26 08:58:21;;;;;;;;;4.00;3.00;;;;;;;;5029508;28;46123;-83
2021/08/26 09:00:46;;;;;;;;;5.33;3.00;;;;;;;;5024880;28;45363;-83
2021/08/26 09:03:11;;;;;;;;;3.67;2.00;;;;;;;;5018822;28;48023;-83
2021/08/26 09:05:50;;;;;;;;;6.00;4.00;;;;;;;;5018102;28;45504;-81
2021/08/26 09:08:16;;;;;;;;;2.50;2.50;;;;;;;;5024714;28;45390;-83
2021/08/26 09:10:42;;;;;;;;;3.00;3.00;;;;;;;;5025678;28;45344;-82
2021/08/26 09:13:08;;;;;;;;;3.25;3.25;;;;;;;;5029876;28;48184;-87
2021/08/26 09:15:33;;;;;;;;;6.00;3.00;;;;;;;;5029221;28;45426;-82
2021/08/26 09:18:15;;;;;;;;;2.00;2.00;;;;;;;;5022832;28;45868;-82
2021/08/26 09:20:52;;;;;;;;;5.25;3.00;;;;;;;;5023639;28;45379;-81
2021/08/26 09:23:18;;;;;;;;;4.00;3.00;;;;;;;;5024703;28;45524;-81
2021/08/26 09:25:44;;;;;;;;;2.00;2.00;;;;;;;;5022962;28;45368;-82
2021/08/26 09:28:30;;;;;;;;;3.00;3.00;;;;;;;;5029800;28;45599;-82
2021/08/26 09:31:08;;;;;;;;;4.50;3.25;;;;;;;;5028451;28;45525;-82
2021/08/26 09:33:52;;;;;;;;;3.00;3.00;;;;;;;;5028926;28;47198;-82
2021/08/26 09:36:19;;;;;;;;;3.00;2.00;;;;;;;;5026666;28;46184;-81
2021/08/26 09:38:48;;;;;;;;;5.00;2.00;;;;;;;;5026261;28;45650;-81
2021/08/26 09:41:15;;;;;;;;;3.25;3.25;;;;;;;;5025031;28;52380;-80
2021/08/26 09:43:40;;;;;;;;;5.50;3.00;;;;;;;;5022679;28;46324;-81
2021/08/26 09:46:05;;;;;;;;;5.00;3.00;;;;;;;;5027879;28;45627;-81
2021/08/26 09:48:30;;;;;;;;;3.00;3.00;;;;;;;;5031796;28;45475;-81
2021/08/26 09:50:55;;;;;;;;;4.33;2.33;;;;;;;;5024361;28;45487;-82
2021/08/26 09:53:22;;;;;;;;;5.00;3.33;;;;;;;;5025197;28;46616;-81
2021/08/26 09:55:50;;;;;;;;;3.00;3.00;;;;;;;;5025351;28;45807;-81
2021/08/26 09:58:16;;;;;;;;;4.75;3.00;;;;;;;;5024335;28;45870;-83
2021/08/26 10:00:42;;;;;;;;;4.50;3.25;;;;;;;;5030582;28;45450;-80
2021/08/26 10:03:12;;;;;;;;;4.75;2.00;;;;;;;;5021795;28;46661;-84
2021/08/26 10:05:37;;;;;;;;;1.50;1.50;;;;;;;;5026506;28;45547;-83
2021/08/26 10:08:03;;;;;;;;;2.00;2.00;;;;;;;;5027096;28;45486;-83
2021/08/26 10:10:29;;;;;;;;;2.25;2.00;;;;;;;;5029612;28;45524;-83
2021/08/26 10:12:54;;;;;;;;;0.25;0.25;;;;;;;;5031281;28;45446;-85
2021/08/26 10:15:19;;;;;;;;;3.25;1.75;;;;;;;;5029317;28;45497;-82
2021/08/26 10:17:45;;;;;;;;;4.00;3.00;;;;;;;;5028883;28;45512;-83
2021/08/26 10:20:10;;;;;;;;;1.00;1.00;;;;;;;;5028999;28;45537;-83
2021/08/26 10:22:35;;;;;;;;;3.00;2.00;;;;;;;;5020266;28;46611;-86
2021/08/26 10:25:01;;;;;;;;;2.00;2.00;;;;;;;;5032178;28;45727;-86
2021/08/26 10:27:28;;;;;;;;;2.25;2.25;;;;;;;;5034214;28;45436;-84
2021/08/26 10:29:54;;;;;;;;;2.00;2.00;;;;;;;;5030266;28;45617;-88
2021/08/26 10:32:21;;;;;;;;;2.00;1.00;;;;;;;;5019608;28;48728;-84
2021/08/26 10:35:05;;;;;;;;;2.75;2.50;;;;;;;;5029696;28;45405;-84
2021/08/26 10:37:49;;;;;;;;;4.00;2.50;;;;;;;;5028078;28;45595;-84
2021/08/26 10:40:33;;;;;;;;;3.50;2.00;;;;;;;;5027056;28;45643;-80
2021/08/26 10:42:58;;;;;;;;;8.25;5.25;;;;;;;;5025748;28;45957;-80
2021/08/26 10:45:26;;;;;;;;;4.50;3.00;;;;;;;;5030617;28;45649;-80
2021/08/26 10:47:57;;;;;;;;;4.00;3.00;;;;;;;;5023770;28;45532;-79
2021/08/26 10:50:24;;;;;;;;;2.00;2.00;;;;;;;;5025338;28;45589;-81
2021/08/26 10:52:57;;;;;;;;;1.00;1.00;;;;;;;;5019525;28;46325;-81
2021/08/26 10:55:31;;;;;;;;;1.00;1.00;;;;;;;;5027251;28;45407;-79
2021/08/26 10:58:15;;;;;;;;;3.00;2.00;;;;;;;;5031532;28;45865;-80
2021/08/26 11:00:44;;;;;;;;;1.00;1.00;;;;;;;;5034200;28;45759;-79
2021/08/26 11:03:09;;;;;;;;;2.50;0.75;;;;;;;;5023370;28;45972;-81
2021/08/26 11:05:35;;;;;;;;;4.00;1.00;;;;;;;;5026506;28;45518;-80
2021/08/26 11:08:01;;;;;;;;;5.00;2.00;;;;;;;;5030107;28;45480;-79
2021/08/26 11:10:29;;;;;;;;;0.25;0.25;;;;;;;;5027176;28;45559;-80
2021/08/26 11:13:24;;;;;;;;;0.75;0.75;;;;;;;;5028825;28;47505;-80
2021/08/26 11:15:49;;;;;;;;;1.00;1.00;;;;;;;;5032729;28;45776;-78
2021/08/26 11:18:27;;;;;;;;;0.33;0.33;;;;;;;;5020787;28;45604;-82
2021/08/26 11:20:53;;;;;;;;;1.00;1.00;;;;;;;;5021854;28;45506;-82
2021/08/26 11:23:18;;;;;;;;;1.75;1.00;;;;;;;;5030388;28;45450;-86
2021/08/26 11:25:43;;;;;;;;;1.00;1.00;;;;;;;;5027957;28;45446;-84
2021/08/26 11:28:28;;;;;;;;;0.00;0.00;;;;;;;;5027859;28;45997;-81
2021/08/26 11:31:12;;;;;;;;;2.00;2.00;;;;;;;;5024502;28;46559;-79
2021/08/26 11:33:37;;;;;;;;;1.00;1.00;;;;;;;;5028249;28;46533;-91
2021/08/26 11:36:09;;;;;;;;;0.33;0.33;;;;;;;;5021965;28;45659;-91
2021/08/26 11:38:45;;;;;;;;;0.00;0.00;;;;;;;;5029623;28;45465;-89
2021/08/26 11:41:10;;;;;;;;;1.00;1.00;;;;;;;;5024369;28;46029;-87
2021/08/26 11:43:40;;;;;;;;;1.00;1.00;;;;;;;;5024134;28;45952;-91
2021/08/26 11:46:10;;;;;;;;;0.00;0.00;;;;;;;;5024996;28;45469;-87
2021/08/26 11:48:35;;;;;;;;;0.00;0.00;;;;;;;;5027728;28;45397;-89
2021/08/26 11:51:02;;;;;;;;;0.33;0.33;;;;;;;;5028745;28;45481;-84
2021/08/26 11:53:27;;;;;;;;;0.00;0.00;;;;;;;;5012201;28;45624;-82
2021/08/26 11:55:55;;;;;;;;;0.67;0.67;;;;;;;;5025365;28;45549;-85
2021/08/26 11:58:20;;;;;;;;;2.25;0.75;;;;;;;;5025887;28;45606;-83
2021/08/26 12:00:49;;;;;;;;;1.00;1.00;;;;;;;;5028649;28;45236;-83
2021/08/26 12:03:15;;;;;;;;;0.75;0.50;;;;;;;;5028780;28;45551;-82
2021/08/26 12:05:41;;;;;;;;;0.75;0.75;;;;;;;;5024555;28;54215;-81
2021/08/26 12:08:07;;;;;;;;;2.50;1.75;;;;;;;;5029830;28;45576;-80
2021/08/26 12:10:33;;;;;;;;;5.75;1.75;;;;;;;;5029155;28;45796;-83
2021/08/26 12:13:02;;;;;;;;;0.75;0.75;;;;;;;;5026442;28;45984;-81
2021/08/26 12:15:29;;;;;;;;;2.00;2.00;;;;;;;;5028512;28;45817;-81
2021/08/26 12:18:14;;;;;;;;;1.75;1.00;;;;;;;;5021841;28;45481;-82
2021/08/26 12:20:43;;;;;;;;;1.00;1.00;;;;;;;;5028969;28;45488;-87
2021/08/26 12:23:09;;;;;;;;;1.75;1.75;;;;;;;;5030204;28;45424;-84
2021/08/26 12:25:36;;;;;;;;;2.75;2.00;;;;;;;;5025257;28;45721;-81
2021/08/26 12:28:03;;;;;;;;;3.00;1.75;;;;;;;;5031085;28;45469;-81
2021/08/26 12:30:29;;;;;;;;;3.50;3.50;;;;;;;;5029426;28;45434;-82
2021/08/26 12:33:08;;;;;;;;;3.50;3.00;;;;;;;;5029489;28;45546;-84
2021/08/26 12:35:41;;;;;;;;;2.75;2.75;;;;;;;;5019482;28;45814;-82
2021/08/26 12:38:06;;;;;;;;;5.75;2.75;;;;;;;;5026785;28;45623;-82
2021/08/26 12:40:47;;;;;;;;;2.67;2.67;;;;;;;;5028074;28;45541;-81
2021/08/26 12:43:12;;;;;;;;;3.00;3.00;;;;;;;;5030035;28;46142;-79
2021/08/26 12:45:37;;;;;;;;;2.25;2.25;;;;;;;;5024044;28;45445;-79
2021/08/26 12:48:21;;;;;;;;;5.50;5.50;;;;;;;;5028194;28;45472;-78
2021/08/26 12:50:47;;;;;;;;;7.00;4.25;;;;;;;;5020821;28;50297;-81
2021/08/26 12:53:19;;;;;;;;;8.75;8.75;;;;;;;;5023771;28;45428;-77
2021/08/26 12:56:00;;;;;;;;;5.00;5.00;;;;;;;;5013416;28;45639;-82
2021/08/26 12:58:25;;;;;;;;;7.75;7.50;;;;;;;;5019698;28;46004;-78
2021/08/26 13:00:50;;;;;;;;;6.75;5.25;;;;;;;;5031122;28;45395;-76
2021/08/26 13:03:16;;;;;;;;;6.00;6.00;;;;;;;;5029049;28;45342;-83
2021/08/26 13:05:45;;;;;;;;;4.33;4.33;;;;;;;;5032236;28;45953;-82
2021/08/26 13:08:11;;;;;;;;;10.00;7.75;;;;;;;;5019961;28;45879;-80
2021/08/26 13:10:36;;;;;;;;;7.50;7.00;;;;;;;;5017888;28;45824;-79
2021/08/26 13:13:08;;;;;;;;;8.00;8.00;;;;;;;;5012385;28;48304;-80
2021/08/26 13:15:33;;;;;;;;;10.25;7.25;;;;;;;;5025843;28;46174;-79
2021/08/26 13:17:58;;;;;;;;;7.67;7.00;;;;;;;;5010965;28;45435;-79
2021/08/26 13:20:24;;;;;;;;;7.33;7.33;;;;;;;;5011565;28;45525;-80
2021/08/26 13:22:49;;;;;;;;;6.75;6.75;;;;;;;;5013508;28;46065;-80
2021/08/26 13:25:15;;;;;;;;;7.67;7.33;;;;;;;;5014290;28;45440;-79
2021/08/26 13:27:41;;;;;;;;;10.25;7.50;;;;;;;;5031331;28;45352;-80
2021/08/26 13:30:07;;;;;;;;;8.00;8.00;;;;;;;;5017566;28;45696;-79
2021/08/26 13:32:33;;;;;;;;;8.00;8.00;;;;;;;;5018188;28;46371;-80
2021/08/26 13:34:58;;;;;;;;;9.00;6.00;;;;;;;;5020715;28;45511;-79
2021/08/26 13:37:23;;;;;;;;;8.25;6.00;;;;;;;;5025707;28;45432;-80
2021/08/26 13:39:49;;;;;;;;;4.75;3.75;;;;;;;;5031340;28;45295;-80
2021/08/26 13:42:14;;;;;;;;;8.00;6.00;;;;;;;;5027001;28;45399;-79
2021/08/26 13:44:39;;;;;;;;;4.00;3.00;;;;;;;;5028949;28;45331;-79
2021/08/26 13:47:05;;;;;;;;;4.25;3.25;;;;;;;;5022462;28;45528;-79
2021/08/26 13:49:30;;;;;;;;;3.33;1.67;;;;;;;;5026822;28;45458;-81
2021/08/26 13:51:55;;;;;;;;;2.75;1.75;;;;;;;;5033557;28;46014;-80
2021/08/26 13:54:22;;;;;;;;;2.50;1.75;;;;;;;;5024884;28;45516;-82
2021/08/26 13:56:48;;;;;;;;;5.25;3.00;;;;;;;;5030235;28;45630;-78
2021/08/26 13:59:13;;;;;;;;;1.00;1.00;;;;;;;;5023200;28;45468;-82
2021/08/26 14:01:38;;;;;;;;;2.00;1.00;;;;;;;;5026548;28;46567;-80
2021/08/26 14:04:04;;;;;;;;;3.00;1.00;;;;;;;;5032822;28;45490;-80
2021/08/26 14:06:30;;;;;;;;;1.00;1.00;;;;;;;;5030959;28;45823;-83
2021/08/26 14:08:55;;;;;;;;;0.75;0.75;;;;;;;;5030531;28;45408;-81
2021/08/26 14:11:21;;;;;;;;;1.00;1.00;;;;;;;;5026628;28;48699;-84
2021/08/26 14:13:46;;;;;;;;;1.75;0.75;;;;;;;;5033708;28;45241;-85
2021/08/26 14:16:13;;;;;;;;;2.00;1.00;;;;;;;;5027914;28;45653;-80
2021/08/26 14:18:39;;;;;;;;;2.00;1.00;;;;;;;;5030305;28;45712;-79
2021/08/26 14:21:04;;;;;;;;;3.00;2.00;;;;;;;;5030901;28;46159;-83
2021/08/26 14:23:29;;;;;;;;;1.00;1.00;;;;;;;;5026534;28;45546;-81
2021/08/26 14:25:54;;;;;;;;;0.50;0.00;;;;;;;;5029805;28;45890;-81
2021/08/26 14:28:20;;;;;;;;;1.25;1.25;;;;;;;;5031199;28;45576;-80
2021/08/26 14:30:45;;;;;;;;;1.00;1.00;;;;;;;;5033989;28;46154;-81
2021/08/26 14:33:11;;;;;;;;;2.67;2.00;;;;;;;;5032500;28;45431;-81
2021/08/26 14:35:36;;;;;;;;;2.00;2.00;;;;;;;;5026910;28;45372;-88
2021/08/26 14:38:02;;;;;;;;;6.25;2.00;;;;;;;;5029744;28;46189;-83
2021/08/26 14:40:29;;;;;;;;;1.25;1.25;;;;;;;;5028334;28;46403;-80